Language: 


Des rapports , des résumés tant et plus, au choix de chacun....


Données statistiques de la station
Quotidien Rapport Novembre 23, 2017 Unités:  Métrique    Anglais   les deux
« Précédent Jour
Suivant Jour »
Quotidien Hebdomadaire Mensuel Annuel Actuel
  Haut: Bas: Moyen:
Température: 15.0 °C 0.0 °C 11.5 °C
Pt de rosée: 14.0 °C 6.0 °C 8.4 °C
Humidité: 98 % 0 % 80 %
Vitesse du vent: 42.8 km/h 0.0 km/h 14.9 km/h
Rafales: 48.9 km/h - -
Vent:- - SSW
Pression: 1009.0 hPa 0.0 hPa -
Précipitation: 3.8 mm    
Historical Graphs
 
 
Données statistiques pour Novembre 23, 2017
Heure Température Point de rosée Pression Vent Vitesse du vent Refales Humidité Pluie (taux horaire)
00:01 11.2 °C 7.0 °C 997.9 hPa SSW 5.0 km/h 20.9 km/h 72 % 0.0 mm
00:11 11.4 °C 6.0 °C 997.9 hPa South 15.8 km/h 20.1 km/h 71 % 0.0 mm
00:16 11.4 °C 6.0 °C 997.9 hPa SSW 17.2 km/h 20.1 km/h 71 % 0.0 mm
00:21 11.5 °C 7.0 °C 997.9 hPa South 21.2 km/h 21.9 km/h 71 % 0.0 mm
00:26 11.5 °C 7.0 °C 996.8 hPa SSW 16.6 km/h 24.5 km/h 71 % 0.0 mm
00:31 11.6 °C 6.0 °C 996.8 hPa South 17.7 km/h 24.5 km/h 70 % 0.0 mm
00:36 11.6 °C 6.0 °C 996.8 hPa South 11.9 km/h 23.3 km/h 70 % 0.0 mm
00:41 11.7 °C 6.0 °C 996.8 hPa SSW 17.7 km/h 24.5 km/h 70 % 0.0 mm
00:46 11.7 °C 6.0 °C 996.8 hPa South 20.1 km/h 24.5 km/h 69 % 0.0 mm
00:51 11.7 °C 6.0 °C 996.8 hPa South 10.5 km/h 21.2 km/h 69 % 0.0 mm
00:56 11.7 °C 6.0 °C 996.8 hPa SSW 8.7 km/h 24.8 km/h 69 % 0.0 mm
01:06 11.8 °C 6.0 °C 996.8 hPa SSW 20.9 km/h 21.9 km/h 69 % 0.0 mm
01:11 11.8 °C 6.0 °C 996.2 hPa SW 16.9 km/h 25.9 km/h 68 % 0.0 mm
01:16 11.8 °C 6.0 °C 996.2 hPa South 10.5 km/h 25.9 km/h 68 % 0.0 mm
01:26 11.8 °C 6.0 °C 996.2 hPa South 25.6 km/h 31.7 km/h 68 % 0.0 mm
01:31 11.8 °C 6.0 °C 996.2 hPa South 17.7 km/h 31.7 km/h 68 % 0.0 mm
01:41 12.0 °C 6.0 °C 996.8 hPa South 11.9 km/h 28.0 km/h 66 % 0.0 mm
01:46 11.9 °C 6.0 °C 996.8 hPa South 9.7 km/h 23.3 km/h 67 % 0.0 mm
01:51 11.9 °C 6.0 °C 996.8 hPa South 16.6 km/h 22.7 km/h 67 % 0.0 mm
02:01 12.0 °C 6.0 °C 996.8 hPa SSW 11.9 km/h 27.4 km/h 66 % 0.0 mm
02:06 12.0 °C 6.0 °C 996.8 hPa South 16.9 km/h 24.5 km/h 66 % 0.0 mm
02:11 12.1 °C 6.0 °C 996.8 hPa SSW 11.9 km/h 24.5 km/h 65 % 0.0 mm
02:21 12.3 °C 6.0 °C 996.8 hPa SSW 19.5 km/h 31.4 km/h 64 % 0.0 mm
02:27 12.4 °C 6.0 °C 996.8 hPa SSW 20.6 km/h 38.9 km/h 64 % 0.0 mm
02:32 12.4 °C 6.0 °C 996.8 hPa South 27.7 km/h 38.9 km/h 63 % 0.0 mm
02:37 12.4 °C 6.0 °C 996.8 hPa South 23.3 km/h 31.4 km/h 63 % 0.0 mm
02:57 12.3 °C 6.0 °C 996.2 hPa South 16.9 km/h 31.7 km/h 64 % 0.0 mm
03:02 0.0 °C 6.0 °C 0.0 hPa SSW 16.3 km/h 36.0 km/h 0 % 0.0 mm
03:17 12.5 °C 6.0 °C 996.2 hPa SSW 17.7 km/h 31.4 km/h 63 % 0.0 mm
03:22 12.5 °C 6.0 °C 996.2 hPa SSW 17.2 km/h 30.9 km/h 64 % 0.0 mm
03:27 12.4 °C 6.0 °C 996.2 hPa SSW 18.0 km/h 30.9 km/h 64 % 0.0 mm
03:32 12.4 °C 6.0 °C 996.2 hPa South 21.2 km/h 31.7 km/h 64 % 0.0 mm
03:37 12.4 °C 6.0 °C 996.2 hPa SSW 19.8 km/h 31.7 km/h 65 % 0.0 mm
03:42 12.4 °C 6.0 °C 995.1 hPa South 20.6 km/h 26.2 km/h 65 % 0.0 mm
03:52 12.4 °C 6.0 °C 995.1 hPa South 28.8 km/h 37.8 km/h 65 % 0.0 mm
04:02 12.5 °C 7.0 °C 994.1 hPa SSW 14.0 km/h 35.6 km/h 66 % 0.0 mm
04:07 12.5 °C 7.0 °C 994.1 hPa SW 17.7 km/h 35.6 km/h 66 % 0.0 mm
04:13 12.4 °C 6.0 °C 995.1 hPa SSW 27.0 km/h 34.6 km/h 66 % 0.0 mm
04:19 12.4 °C 6.0 °C 995.1 hPa South 19.1 km/h 34.6 km/h 66 % 0.0 mm
04:20 12.4 °C 6.0 °C 995.1 hPa South 24.8 km/h 34.6 km/h 66 % 0.0 mm
04:25 12.4 °C 6.0 °C 995.1 hPa SSW 16.3 km/h 28.5 km/h 66 % 0.0 mm
04:26 12.4 °C 6.0 °C 995.1 hPa SSW 21.2 km/h 28.5 km/h 66 % 0.0 mm
04:31 12.4 °C 7.0 °C 995.1 hPa SSW 25.9 km/h 35.6 km/h 67 % 0.0 mm
04:34 12.4 °C 6.0 °C 995.1 hPa SSW 23.8 km/h 35.6 km/h 66 % 0.0 mm
04:39 12.4 °C 7.0 °C 995.1 hPa South 17.2 km/h 35.6 km/h 67 % 0.0 mm
04:49 12.3 °C 7.0 °C 995.1 hPa SSW 21.9 km/h 28.5 km/h 67 % 0.0 mm
04:54 12.2 °C 7.0 °C 995.1 hPa South 15.4 km/h 33.1 km/h 68 % 0.0 mm
04:59 12.1 °C 7.0 °C 995.1 hPa South 35.2 km/h 35.2 km/h 68 % 0.0 mm
05:00 12.1 °C 7.0 °C 995.1 hPa SSW 17.7 km/h 35.2 km/h 68 % 0.0 mm
05:15 12.0 °C 7.0 °C 994.1 hPa SSW 23.8 km/h 32.0 km/h 69 % 0.0 mm
05:20 12.0 °C 7.0 °C 994.1 hPa South 24.5 km/h 32.0 km/h 69 % 0.0 mm
05:30 12.2 °C 7.0 °C 994.1 hPa SSW 24.5 km/h 35.6 km/h 69 % 0.0 mm
05:35 12.1 °C 7.0 °C 994.1 hPa South 24.5 km/h 35.6 km/h 69 % 0.0 mm
05:40 12.2 °C 7.0 °C 994.1 hPa South 19.1 km/h 33.1 km/h 69 % 0.0 mm
05:45 12.2 °C 7.0 °C 994.1 hPa South 19.1 km/h 35.6 km/h 70 % 0.0 mm
05:50 12.2 °C 7.0 °C 994.1 hPa West 25.9 km/h 35.6 km/h 70 % 0.0 mm
05:55 12.2 °C 7.0 °C 994.1 hPa South 16.9 km/h 30.9 km/h 70 % 0.0 mm
06:00 12.2 °C 7.0 °C 994.1 hPa South 21.2 km/h 30.9 km/h 70 % 0.0 mm
06:05 12.3 °C 7.0 °C 994.1 hPa SSE 27.7 km/h 33.1 km/h 70 % 0.0 mm
06:10 12.3 °C 7.0 °C 993.1 hPa SSW 29.9 km/h 36.4 km/h 70 % 0.0 mm
06:15 12.3 °C 7.0 °C 993.1 hPa SSW 9.0 km/h 36.4 km/h 70 % 0.0 mm
06:20 12.3 °C 8.0 °C 993.1 hPa SSE 16.9 km/h 32.0 km/h 71 % 0.0 mm
06:25 12.5 °C 8.0 °C 993.1 hPa South 24.5 km/h 36.0 km/h 71 % 0.0 mm
06:30 12.5 °C 8.0 °C 993.1 hPa South 22.4 km/h 36.0 km/h 71 % 0.0 mm
06:40 12.5 °C 8.0 °C 993.1 hPa South 22.7 km/h 31.7 km/h 71 % 0.0 mm
06:45 12.6 °C 8.0 °C 993.1 hPa South 24.5 km/h 34.6 km/h 71 % 0.0 mm
06:51 12.7 °C 8.0 °C 993.1 hPa South 19.5 km/h 38.1 km/h 71 % 0.0 mm
06:56 12.8 °C 9.0 °C 994.1 hPa South 12.6 km/h 38.1 km/h 72 % 0.0 mm
07:01 12.9 °C 9.0 °C 994.1 hPa WSW 19.8 km/h 28.5 km/h 72 % 0.0 mm
07:06 13.0 °C 9.0 °C 994.1 hPa SSW 26.7 km/h 45.1 km/h 72 % 0.0 mm
07:11 13.2 °C 9.0 °C 994.1 hPa South 21.6 km/h 45.1 km/h 73 % 0.0 mm
07:16 13.4 °C 9.0 °C 994.1 hPa South 19.8 km/h 38.5 km/h 73 % 0.0 mm
07:26 13.6 °C 9.0 °C 994.1 hPa SSW 17.7 km/h 41.7 km/h 74 % 0.0 mm
07:31 13.6 °C 9.0 °C 994.1 hPa SW 37.0 km/h 37.0 km/h 74 % 0.0 mm
07:41 13.7 °C 10.0 °C 995.1 hPa SSW 28.5 km/h 37.0 km/h 75 % 0.0 mm
07:46 13.7 °C 10.0 °C 995.1 hPa SSW 28.5 km/h 28.5 km/h 76 % 0.0 mm
07:52 13.7 °C 10.0 °C 995.1 hPa SSW 28.5 km/h 28.5 km/h 77 % 0.0 mm
07:57 13.6 °C 10.0 °C 995.1 hPa South 18.0 km/h 28.5 km/h 78 % 0.0 mm
08:02 13.3 °C 10.0 °C 995.1 hPa South 24.5 km/h 36.0 km/h 81 % 0.0 mm
08:07 13.2 °C 11.0 °C 995.1 hPa SW 30.6 km/h 40.7 km/h 84 % 0.0 mm
08:12 13.0 °C 11.0 °C 995.1 hPa SW 24.5 km/h 40.7 km/h 84 % 0.0 mm
08:17 13.0 °C 11.0 °C 995.1 hPa South 20.6 km/h 37.0 km/h 88 % 0.0 mm
08:22 12.9 °C 12.0 °C 995.1 hPa SSW 25.9 km/h 40.4 km/h 91 % 0.3 mm
08:27 12.7 °C 12.0 °C 996.2 hPa SW 24.5 km/h 40.4 km/h 92 % 0.3 mm
08:32 12.6 °C 12.0 °C 996.2 hPa WSW 24.8 km/h 33.8 km/h 92 % 0.5 mm
08:37 12.5 °C 12.0 °C 996.2 hPa WSW 11.9 km/h 24.8 km/h 93 % 0.8 mm
08:42 12.4 °C 12.0 °C 996.8 hPa WSW 13.0 km/h 24.8 km/h 94 % 0.8 mm
08:47 12.3 °C 12.0 °C 996.8 hPa WSW 12.2 km/h 17.2 km/h 94 % 1.5 mm
08:52 12.2 °C 12.0 °C 996.8 hPa WSW 13.0 km/h 19.1 km/h 95 % 2.3 mm
09:02 12.3 °C 12.0 °C 996.8 hPa SW 9.3 km/h 20.6 km/h 97 % 2.5 mm
09:07 12.3 °C 12.0 °C 996.8 hPa SW 13.7 km/h 24.8 km/h 97 % 2.5 mm
09:12 12.4 °C 13.0 °C 996.2 hPa SW 10.8 km/h 24.8 km/h 98 % 2.5 mm
09:17 12.4 °C 13.0 °C 996.2 hPa SW 17.2 km/h 20.9 km/h 98 % 2.5 mm
09:22 12.4 °C 13.0 °C 996.2 hPa SSW 16.3 km/h 21.2 km/h 98 % 2.3 mm
09:27 12.4 °C 13.0 °C 996.8 hPa SW 16.6 km/h 21.2 km/h 98 % 2.3 mm
09:32 12.5 °C 13.0 °C 996.8 hPa SW 15.8 km/h 24.5 km/h 98 % 2.3 mm
09:47 12.6 °C 13.0 °C 996.8 hPa SW 16.3 km/h 25.3 km/h 98 % 0.8 mm
09:52 12.7 °C 13.0 °C 996.8 hPa SW 12.2 km/h 23.8 km/h 98 % 0.5 mm
09:57 12.7 °C 13.0 °C 996.8 hPa SW 14.0 km/h 19.5 km/h 98 % 0.3 mm
10:02 12.7 °C 13.0 °C 996.8 hPa WSW 9.0 km/h 24.5 km/h 98 % 0.3 mm
10:12 12.8 °C 13.0 °C 997.9 hPa SSW 13.7 km/h 20.9 km/h 98 % 0.3 mm
10:18 12.9 °C 13.0 °C 997.9 hPa South 17.7 km/h 23.3 km/h 98 % 0.3 mm
10:28 13.3 °C 13.0 °C 997.9 hPa SSW 17.7 km/h 20.9 km/h 97 % 0.0 mm
10:34 13.3 °C 13.0 °C 997.9 hPa South 12.2 km/h 20.9 km/h 97 % 0.0 mm
10:39 13.4 °C 13.0 °C 997.9 hPa SSW 13.0 km/h 25.3 km/h 97 % 0.0 mm
10:44 13.5 °C 13.0 °C 998.9 hPa SSW 15.1 km/h 25.3 km/h 97 % 0.0 mm
10:49 13.6 °C 13.0 °C 998.9 hPa SW 17.7 km/h 20.6 km/h 96 % 0.0 mm
10:54 13.7 °C 13.0 °C 998.9 hPa SSW 19.5 km/h 30.6 km/h 96 % 0.0 mm
10:59 13.8 °C 13.0 °C 998.9 hPa SSW 19.8 km/h 30.6 km/h 96 % 0.0 mm
11:09 13.9 °C 13.0 °C 998.9 hPa SW 15.8 km/h 24.5 km/h 95 % 0.0 mm
11:14 13.9 °C 13.0 °C 998.9 hPa SSW 20.6 km/h 23.8 km/h 95 % 0.0 mm
11:19 14.0 °C 13.0 °C 998.9 hPa SW 15.1 km/h 23.0 km/h 95 % 0.0 mm
11:24 14.2 °C 14.0 °C 998.9 hPa SW 15.8 km/h 23.8 km/h 95 % 0.0 mm
11:29 14.5 °C 14.0 °C 998.9 hPa WSW 12.6 km/h 23.8 km/h 95 % 0.0 mm
11:34 14.5 °C 14.0 °C 998.9 hPa SW 21.2 km/h 27.7 km/h 94 % 0.0 mm
11:49 14.5 °C 13.0 °C 998.9 hPa SW 16.3 km/h 30.9 km/h 91 % 0.0 mm
11:54 14.8 °C 13.0 °C 998.9 hPa SW 17.2 km/h 30.9 km/h 91 % 0.0 mm
12:04 15.0 °C 13.0 °C 998.9 hPa SW 16.9 km/h 25.9 km/h 88 % 0.0 mm
12:14 14.8 °C 13.0 °C 998.9 hPa WSW 41.0 km/h 46.0 km/h 88 % 0.0 mm
12:19 14.1 °C 13.0 °C 998.9 hPa WSW 42.8 km/h 48.9 km/h 89 % 0.5 mm
12:30 13.7 °C 13.0 °C 1000.9 hPa WSW 24.8 km/h 46.8 km/h 92 % 0.5 mm
12:35 13.7 °C 13.0 °C 1000.9 hPa WSW 33.8 km/h 39.6 km/h 93 % 0.5 mm
12:50 13.7 °C 13.0 °C 1000.9 hPa SW 34.3 km/h 36.0 km/h 93 % 1.0 mm
12:55 13.7 °C 13.0 °C 1000.9 hPa WSW 20.1 km/h 42.2 km/h 93 % 1.0 mm
13:00 13.7 °C 13.0 °C 1000.9 hPa WSW 20.9 km/h 42.2 km/h 93 % 1.0 mm
13:10 13.2 °C 11.0 °C 1000.9 hPa WSW 24.5 km/h 39.3 km/h 85 % 1.0 mm
13:15 13.7 °C 11.0 °C 1001.9 hPa WSW 31.7 km/h 36.7 km/h 84 % 0.8 mm
13:20 13.7 °C 11.0 °C 1001.9 hPa West 30.2 km/h 41.7 km/h 84 % 0.3 mm
13:25 13.7 °C 11.0 °C 1001.9 hPa WSW 27.7 km/h 41.7 km/h 84 % 0.3 mm
13:30 13.7 °C 11.0 °C 1000.9 hPa WSW 26.2 km/h 38.1 km/h 84 % 0.3 mm
13:40 13.7 °C 11.0 °C 1000.9 hPa West 41.0 km/h 43.6 km/h 84 % 0.0 mm
13:45 13.7 °C 11.0 °C 1001.9 hPa WNW 32.0 km/h 43.1 km/h 84 % 0.0 mm
13:50 13.7 °C 11.0 °C 1001.9 hPa West 27.4 km/h 43.6 km/h 84 % 0.0 mm
14:05 13.7 °C 11.0 °C 1002.9 hPa West 21.2 km/h 31.4 km/h 84 % 0.0 mm
14:10 12.7 °C 11.0 °C 1002.9 hPa West 21.9 km/h 28.5 km/h 85 % 0.0 mm
14:16 12.7 °C 11.0 °C 1002.9 hPa West 33.1 km/h 33.1 km/h 85 % 0.0 mm
14:26 12.7 °C 11.0 °C 1002.9 hPa WSW 16.9 km/h 38.9 km/h 85 % 0.0 mm
14:32 12.7 °C 11.0 °C 1002.9 hPa WSW 23.8 km/h 40.7 km/h 85 % 0.0 mm
14:37 12.7 °C 11.0 °C 1002.9 hPa West 28.0 km/h 40.7 km/h 85 % 0.0 mm
14:42 12.7 °C 11.0 °C 1002.9 hPa West 23.3 km/h 40.4 km/h 85 % 0.0 mm
14:47 12.7 °C 11.0 °C 1002.9 hPa WSW 20.6 km/h 35.2 km/h 85 % 0.0 mm
14:54 12.7 °C 11.0 °C 1002.9 hPa West 23.8 km/h 37.0 km/h 85 % 0.0 mm
14:59 12.7 °C 11.0 °C 1002.9 hPa WSW 27.4 km/h 36.0 km/h 85 % 0.0 mm
15:04 12.7 °C 11.0 °C 1002.9 hPa WSW 24.8 km/h 36.0 km/h 85 % 0.0 mm
15:09 12.4 °C 8.0 °C 1002.9 hPa WSW 24.5 km/h 36.4 km/h 72 % 0.0 mm
15:14 12.3 °C 8.0 °C 1002.9 hPa WSW 18.3 km/h 36.4 km/h 74 % 0.0 mm
15:19 12.2 °C 8.0 °C 1002.9 hPa WSW 21.2 km/h 28.8 km/h 73 % 0.0 mm
15:24 12.2 °C 8.0 °C 1002.9 hPa WSW 23.8 km/h 36.4 km/h 73 % 0.0 mm
15:30 12.3 °C 7.0 °C 1003.9 hPa WSW 21.2 km/h 36.4 km/h 68 % 0.0 mm
15:35 12.2 °C 7.0 °C 1003.9 hPa WSW 18.0 km/h 31.7 km/h 69 % 0.0 mm
15:40 12.1 °C 7.0 °C 1003.9 hPa West 20.6 km/h 31.7 km/h 69 % 0.0 mm
15:45 12.0 °C 7.0 °C 1005.0 hPa WSW 16.3 km/h 31.4 km/h 69 % 0.0 mm
15:47 11.7 °C 6.0 °C 1005.0 hPa WSW 20.6 km/h 31.4 km/h 70 % 0.0 mm
15:52 11.7 °C 7.0 °C 1005.0 hPa WSW 13.0 km/h 28.5 km/h 71 % 0.0 mm
15:57 11.6 °C 7.0 °C 1005.0 hPa WSW 12.2 km/h 27.0 km/h 71 % 0.0 mm
16:02 11.4 °C 7.0 °C 1005.0 hPa WSW 11.9 km/h 23.0 km/h 72 % 0.0 mm
16:07 11.2 °C 7.0 °C 1005.0 hPa WSW 16.3 km/h 20.6 km/h 73 % 0.0 mm
16:12 11.1 °C 6.0 °C 1005.0 hPa WSW 10.1 km/h 20.6 km/h 73 % 0.0 mm
16:26 11.1 °C 6.0 °C 1005.0 hPa Calm   18.3 km/h 73 % 0.0 mm
16:31 11.1 °C 6.0 °C 1005.0 hPa WSW 10.1 km/h 14.0 km/h 73 % 0.0 mm
16:41 10.0 °C 6.0 °C 1005.0 hPa SW 8.7 km/h 12.6 km/h 76 % 0.0 mm
16:42 10.0 °C 6.0 °C 1005.0 hPa SW 6.1 km/h 12.6 km/h 76 % 0.0 mm
16:52 10.0 °C 6.0 °C 1005.0 hPa SW 5.8 km/h 9.7 km/h 76 % 0.0 mm
16:57 10.0 °C 6.0 °C 1005.0 hPa SW 4.3 km/h 9.7 km/h 76 % 0.0 mm
17:07 10.0 °C 6.0 °C 1005.0 hPa SSW 7.2 km/h 11.6 km/h 76 % 0.0 mm
17:12 10.0 °C 6.0 °C 1006.0 hPa Calm   11.6 km/h 76 % 0.0 mm
17:17 10.0 °C 6.0 °C 1006.0 hPa SSW 1.8 km/h 9.0 km/h 76 % 0.0 mm
17:22 10.0 °C 6.0 °C 1006.0 hPa Calm   9.0 km/h 76 % 0.0 mm
17:27 10.0 °C 6.0 °C 1006.0 hPa Calm   6.4 km/h 76 % 0.0 mm
17:32 10.0 °C 6.0 °C 1006.0 hPa Calm   4.0 km/h 76 % 0.0 mm
17:37 10.0 °C 6.0 °C 1006.0 hPa Calm   4.7 km/h 76 % 0.0 mm
17:42 10.0 °C 6.0 °C 1006.0 hPa Calm   4.7 km/h 76 % 0.0 mm
17:47 10.0 °C 6.0 °C 1006.0 hPa Calm     76 % 0.0 mm
17:52 10.0 °C 6.0 °C 1006.0 hPa Calm     76 % 0.0 mm
17:57 10.0 °C 6.0 °C 1007.0 hPa Calm   2.1 km/h 76 % 0.0 mm
18:03 10.0 °C 6.0 °C 1007.0 hPa Calm   2.1 km/h 76 % 0.0 mm
18:08 10.0 °C 6.0 °C 1007.0 hPa Calm   1.4 km/h 76 % 0.0 mm
18:13 10.0 °C 6.0 °C 1007.0 hPa Calm   5.5 km/h 76 % 0.0 mm
18:18 8.4 °C 6.0 °C 1007.0 hPa SSW 4.0 km/h 5.5 km/h 85 % 0.0 mm
18:23 8.4 °C 6.0 °C 1007.0 hPa SSW 1.8 km/h 6.4 km/h 85 % 0.0 mm
18:28 8.4 °C 6.0 °C 1007.0 hPa Calm   7.6 km/h 85 % 0.0 mm
18:38 8.4 °C 6.0 °C 1007.0 hPa Calm   6.1 km/h 85 % 0.0 mm
18:43 8.4 °C 6.0 °C 1007.0 hPa Calm   6.1 km/h 85 % 0.0 mm
18:48 8.4 °C 6.0 °C 1007.0 hPa Calm   5.8 km/h 85 % 0.0 mm
18:53 8.4 °C 6.0 °C 1007.0 hPa SSW 2.1 km/h 5.8 km/h 85 % 0.0 mm
18:58 8.4 °C 6.0 °C 1007.0 hPa Calm   5.0 km/h 85 % 0.0 mm
19:03 8.0 °C 6.0 °C 1007.0 hPa Calm   6.4 km/h 88 % 0.0 mm
19:08 8.0 °C 6.0 °C 1007.0 hPa South 4.0 km/h 6.4 km/h 88 % 0.0 mm
19:13 8.0 °C 6.0 °C 1006.0 hPa Calm   9.3 km/h 88 % 0.0 mm
19:23 8.0 °C 6.0 °C 1006.0 hPa Calm   8.7 km/h 88 % 0.0 mm
19:28 8.0 °C 6.0 °C 1007.0 hPa South 5.5 km/h 10.1 km/h 88 % 0.0 mm
19:38 8.1 °C 7.0 °C 1007.0 hPa SW 7.9 km/h 10.1 km/h 91 % 0.0 mm
19:43 8.2 °C 7.0 °C 1007.0 hPa Calm   12.6 km/h 91 % 0.0 mm
19:48 8.2 °C 7.0 °C 1007.0 hPa South 5.8 km/h 12.6 km/h 91 % 0.0 mm
19:53 8.2 °C 7.0 °C 1007.0 hPa SSW 5.0 km/h 9.3 km/h 91 % 0.0 mm
19:58 8.3 °C 7.0 °C 1007.0 hPa Calm   9.7 km/h 92 % 0.0 mm
20:13 8.5 °C 8.0 °C 1007.0 hPa SSW 6.9 km/h 9.3 km/h 93 % 0.0 mm
20:18 8.6 °C 8.0 °C 1007.0 hPa Calm   9.3 km/h 92 % 0.0 mm
20:23 8.5 °C 8.0 °C 1007.0 hPa Calm   9.3 km/h 92 % 0.0 mm
20:28 8.5 °C 8.0 °C 1007.0 hPa Calm   9.0 km/h 92 % 0.0 mm
20:33 8.5 °C 8.0 °C 1007.0 hPa South 6.1 km/h 9.0 km/h 92 % 0.0 mm
20:53 8.5 °C 8.0 °C 1008.0 hPa Calm   10.5 km/h 92 % 0.0 mm
20:58 8.5 °C 8.0 °C 1008.0 hPa SSW 3.5 km/h 8.7 km/h 92 % 0.0 mm
21:03 8.4 °C 8.0 °C 1008.0 hPa SSW 4.0 km/h 6.9 km/h 93 % 0.0 mm
21:14 8.4 °C 7.0 °C 1008.0 hPa SSW 7.2 km/h 7.9 km/h 92 % 0.0 mm
21:19 8.4 °C 7.0 °C 1008.0 hPa SW 5.0 km/h 9.3 km/h 92 % 0.0 mm
21:24 8.4 °C 7.0 °C 1008.0 hPa SSW 6.4 km/h 10.5 km/h 92 % 0.0 mm
21:39 8.4 °C 7.0 °C 1008.0 hPa SW 7.9 km/h 11.9 km/h 92 % 0.0 mm
21:44 8.4 °C 7.0 °C 1009.0 hPa South 10.1 km/h 11.9 km/h 92 % 0.0 mm
21:59 8.9 °C 8.0 °C 1008.0 hPa SW 4.7 km/h 11.6 km/h 92 % 0.0 mm
22:04 8.9 °C 8.0 °C 1008.0 hPa SSW 5.0 km/h 12.2 km/h 92 % 0.0 mm
22:10 8.9 °C 8.0 °C 1008.0 hPa SW 10.5 km/h 10.5 km/h 92 % 0.0 mm
22:15 8.9 °C 8.0 °C 1008.0 hPa SSW 5.5 km/h 13.0 km/h 92 % 0.0 mm
22:25 8.9 °C 8.0 °C 1008.0 hPa SW 9.0 km/h 10.1 km/h 92 % 0.0 mm
22:35 8.9 °C 8.0 °C 1008.0 hPa SSW 9.7 km/h 9.7 km/h 89 % 0.0 mm
22:40 8.7 °C 7.0 °C 1008.0 hPa SSW 1.4 km/h 10.1 km/h 88 % 0.0 mm
22:45 8.7 °C 7.0 °C 1008.0 hPa Calm   10.1 km/h 88 % 0.0 mm
22:50 8.7 °C 7.0 °C 1008.0 hPa SSW 4.0 km/h 10.1 km/h 88 % 0.0 mm
23:10 8.5 °C 7.0 °C 1007.0 hPa South 4.0 km/h 5.5 km/h 88 % 0.0 mm
23:15 8.2 °C 6.0 °C 1007.0 hPa SSW 1.4 km/h 9.3 km/h 87 % 0.0 mm
23:20 8.2 °C 6.0 °C 1007.0 hPa South 4.3 km/h 9.3 km/h 87 % 0.0 mm
23:25 8.2 °C 6.0 °C 1007.0 hPa Calm   6.9 km/h 87 % 0.0 mm
23:30 8.2 °C 7.0 °C 1007.0 hPa Calm   6.9 km/h 89 % 0.0 mm
23:35 8.3 °C 7.0 °C 1007.0 hPa Calm   5.8 km/h 90 % 0.0 mm
23:40 8.4 °C 7.0 °C 1007.0 hPa Calm   8.7 km/h 90 % 0.0 mm
23:45 8.5 °C 7.0 °C 1007.0 hPa Calm   8.7 km/h 90 % 0.0 mm
23:50 8.5 °C 7.0 °C 1007.0 hPa SW 5.5 km/h 8.7 km/h 90 % 0.0 mm
23:55 8.7 °C 7.0 °C 1007.0 hPa SSW 5.5 km/h 9.0 km/h 90 % 0.0 mm
Le Gheer Warneton
Courtoisie de Weather Underground - 2 mb

Mise a jour : 18/12/2017 04:04:13
Généré par Cumulus 1.9.4 (1099)